Time;durP1;ratioP1;P1;durP2;ratioP2;P2;SDS_P1;SDS_P2;PMS_P1;PMS_P2;Temp;Humidity;BMP_temperature;BMP_pressure;BME280_temperature;BME280_humidity;BME280_pressure;Samples;Min_cycle;Max_cycle;Signal;HPM_P1;HPM_P2
2022/01/27 00:01:57;;;;;;;30.88;17.17;;;4.30;82.70;;;;;;5104813;28;20052;-85
2022/01/27 00:04:36;;;;;;;34.47;17.27;;;4.30;83.00;;;;;;5104524;27;20143;-85
2022/01/27 00:07:03;;;;;;;33.72;17.88;;;4.30;83.20;;;;;;5105831;28;20059;-86
2022/01/27 00:10:09;;;;;;;35.60;17.38;;;4.30;82.60;;;;;;5099867;28;20062;-86
2022/01/27 00:12:19;;;;;;;35.95;17.48;;;4.30;83.00;;;;;;5102756;28;20049;-86
2022/01/27 00:14:53;;;;;;;36.97;17.48;;;4.30;83.30;;;;;;5100772;28;20131;-86
2022/01/27 00:17:28;;;;;;;35.42;17.73;;;4.30;82.70;;;;;;5107430;28;20031;-86
2022/01/27 00:19:55;;;;;;;33.92;17.50;;;4.30;83.20;;;;;;5096093;28;20048;-85
2022/01/27 00:22:27;;;;;;;33.67;17.35;;;4.30;83.20;;;;;;5101450;28;20056;-85
2022/01/27 00:24:54;;;;;;;31.52;17.20;;;4.20;83.20;;;;;;5106732;28;20822;-86
2022/01/27 00:27:21;;;;;;;39.53;18.73;;;4.30;83.50;;;;;;5102538;28;20097;-85
2022/01/27 00:29:48;;;;;;;35.03;17.33;;;4.30;83.70;;;;;;5095870;28;20136;-85
2022/01/27 00:32:14;;;;;;;32.25;17.60;;;4.30;83.40;;;;;;5094992;28;20060;-86
2022/01/27 00:34:41;;;;;;;36.22;17.38;;;4.30;83.20;;;;;;5105355;28;20094;-85
2022/01/27 00:37:08;;;;;;;30.15;16.52;;;4.30;83.20;;;;;;5110408;28;20097;-85
2022/01/27 00:39:35;;;;;;;35.22;16.88;;;4.30;83.10;;;;;;5106669;28;20041;-85
2022/01/27 00:42:02;;;;;;;34.72;17.17;;;4.30;83.00;;;;;;5104606;28;20048;-85
2022/01/27 00:44:28;;;;;;;32.65;16.17;;;4.30;83.30;;;;;;5106476;27;20049;-85
2022/01/27 00:46:57;;;;;;;31.58;15.35;;;4.30;82.80;;;;;;5113267;28;20067;-85
2022/01/27 00:49:27;;;;;;;31.83;16.00;;;4.40;82.80;;;;;;5103803;28;20101;-85
2022/01/27 00:51:57;;;;;;;34.05;17.33;;;4.40;82.70;;;;;;5102637;27;20059;-86
2022/01/27 00:54:27;;;;;;;30.25;15.55;;;4.40;83.00;;;;;;5096563;27;20087;-85
2022/01/27 00:57:06;;;;;;;31.45;16.48;;;4.40;83.00;;;;;;5095258;28;20049;-85
2022/01/27 01:02:15;;;;;;;32.70;16.63;;;4.40;82.80;;;;;;5106158;27;20043;-85
2022/01/27 01:04:48;;;;;;;31.92;16.45;;;4.40;83.00;;;;;;5102858;28;20673;-86
2022/01/27 01:07:19;;;;;;;32.15;15.73;;;4.40;82.90;;;;;;5101973;28;20114;-86
2022/01/27 01:14:56;;;;;;;36.45;16.20;;;4.40;83.00;;;;;;5101184;28;20946;-86
2022/01/27 01:20:25;;;;;;;32.50;15.80;;;4.40;82.40;;;;;;5095126;28;20139;-86
2022/01/27 01:31:14;;;;;;;30.65;15.70;;;4.40;82.70;;;;;;5100190;28;20465;-85
2022/01/27 01:33:43;;;;;;;32.08;16.63;;;4.40;82.70;;;;;;5099743;28;20048;-85
2022/01/27 01:36:26;;;;;;;29.77;15.77;;;4.40;82.80;;;;;;5100003;27;20907;-86
2022/01/27 01:38:56;;;;;;;27.67;15.27;;;4.40;83.00;;;;;;5101643;28;20057;-85
2022/01/27 01:41:23;;;;;;;32.22;16.90;;;4.40;83.10;;;;;;5096590;28;20061;-85
2022/01/27 01:43:52;;;;;;;30.10;15.60;;;4.40;83.00;;;;;;5104591;28;20067;-85
2022/01/27 01:46:18;;;;;;;31.58;15.93;;;4.40;82.90;;;;;;5098536;28;20102;-86
2022/01/27 01:48:45;;;;;;;31.08;16.58;;;4.50;82.60;;;;;;5099443;28;20092;-85
2022/01/27 01:51:14;;;;;;;31.17;16.70;;;4.50;82.60;;;;;;5105276;28;20494;-86
2022/01/27 01:53:40;;;;;;;35.20;17.60;;;4.50;82.40;;;;;;5105224;28;20431;-86
2022/01/27 01:56:07;;;;;;;33.30;16.17;;;4.50;83.20;;;;;;5099408;28;20100;-85
2022/01/27 01:58:36;;;;;;;27.38;16.02;;;4.50;82.80;;;;;;5104123;28;20139;-85
2022/01/27 02:01:02;;;;;;;31.75;17.98;;;4.50;83.30;;;;;;5111218;28;20059;-85
2022/01/27 02:03:29;;;;;;;31.50;16.50;;;4.50;83.20;;;;;;5113090;27;20106;-85
2022/01/27 02:05:57;;;;;;;33.20;16.73;;;4.50;83.40;;;;;;5113919;28;20040;-85
2022/01/27 02:08:37;;;;;;;32.72;16.40;;;4.50;83.40;;;;;;5113740;28;20044;-85
2022/01/27 02:19:26;;;;;;;34.15;15.82;;;4.50;83.20;;;;;;5113508;28;20124;-85
2022/01/27 02:21:55;;;;;;;35.65;17.02;;;4.50;83.00;;;;;;5114512;28;20056;-85
2022/01/27 02:24:25;;;;;;;33.72;17.48;;;4.50;83.00;;;;;;5108476;28;20450;-85
2022/01/27 02:26:52;;;;;;;36.10;16.77;;;4.50;83.30;;;;;;5106182;28;20060;-86
2022/01/27 02:29:20;;;;;;;36.45;17.33;;;4.50;83.00;;;;;;5104847;28;20078;-86
2022/01/27 02:31:49;;;;;;;32.85;17.00;;;4.50;83.00;;;;;;5092795;28;20495;-85
2022/01/27 02:34:15;;;;;;;32.85;17.02;;;4.50;83.00;;;;;;5097699;28;20067;-86
2022/01/27 02:36:43;;;;;;;33.45;17.33;;;4.50;83.40;;;;;;5102979;28;20052;-86
2022/01/27 02:39:11;;;;;;;33.00;16.63;;;4.50;83.00;;;;;;5093945;28;20880;-85
2022/01/27 02:42:06;;;;;;;33.20;17.67;;;4.50;83.40;;;;;;5094066;28;20869;-86
2022/01/27 02:44:58;;;;;;;29.08;15.00;;;4.50;82.90;;;;;;5095613;28;20052;-86
2022/01/27 02:47:28;;;;;;;29.73;17.02;;;4.50;82.80;;;;;;5101569;28;20142;-86
2022/01/27 02:49:54;;;;;;;32.75;16.92;;;4.50;82.90;;;;;;5106181;28;20519;-86
2022/01/27 02:52:22;;;;;;;34.03;17.90;;;4.50;83.10;;;;;;5099806;27;20052;-86
2022/01/27 02:54:51;;;;;;;34.90;18.23;;;4.50;83.00;;;;;;5098049;27;20683;-85
2022/01/27 02:57:23;;;;;;;32.77;17.57;;;4.50;83.10;;;;;;5094990;28;20106;-86
2022/01/27 02:59:50;;;;;;;34.58;16.67;;;4.50;83.00;;;;;;5106473;28;20361;-86
2022/01/27 03:02:18;;;;;;;33.97;17.23;;;4.40;83.40;;;;;;5093432;28;20068;-85
2022/01/27 03:04:45;;;;;;;34.33;16.38;;;4.40;83.60;;;;;;5106689;28;20053;-86
2022/01/27 03:07:12;;;;;;;37.95;17.08;;;4.40;83.60;;;;;;5093829;28;20060;-85
2022/01/27 03:09:41;;;;;;;35.53;17.55;;;4.40;83.70;;;;;;5096158;27;20049;-85
2022/01/27 03:12:11;;;;;;;29.95;16.30;;;4.40;83.80;;;;;;5097349;28;20044;-86
2022/01/27 03:14:40;;;;;;;35.60;18.02;;;4.40;83.70;;;;;;5100547;27;20567;-86
2022/01/27 03:17:07;;;;;;;33.90;17.13;;;4.40;83.90;;;;;;5097128;28;20053;-85
2022/01/27 03:19:35;;;;;;;37.72;16.48;;;4.40;83.90;;;;;;5093074;28;20144;-86
2022/01/27 03:22:03;;;;;;;37.67;17.50;;;4.40;83.90;;;;;;5097361;28;20814;-85
2022/01/27 03:24:30;;;;;;;30.83;15.50;;;4.40;84.10;;;;;;5097163;28;20112;-86
2022/01/27 03:26:57;;;;;;;35.63;18.15;;;4.30;84.40;;;;;;5101768;27;20046;-86
2022/01/27 03:29:25;;;;;;;33.83;17.75;;;4.30;84.30;;;;;;5102437;28;20072;-85
2022/01/27 03:31:55;;;;;;;35.88;18.60;;;4.40;84.70;;;;;;5099616;28;20059;-86
2022/01/27 03:34:24;;;;;;;32.28;16.42;;;4.40;84.70;;;;;;5102594;27;20056;-85
2022/01/27 03:36:52;;;;;;;38.83;17.42;;;4.40;84.70;;;;;;5095176;28;20055;-85
2022/01/27 03:39:22;;;;;;;37.75;19.45;;;4.40;84.70;;;;;;5101352;28;20084;-86
2022/01/27 03:41:50;;;;;;;37.53;19.23;;;4.40;84.60;;;;;;5106281;28;20141;-85
2022/01/27 03:44:19;;;;;;;34.55;18.17;;;4.40;84.70;;;;;;5095418;28;20118;-85
2022/01/27 03:46:46;;;;;;;38.42;18.08;;;4.40;84.60;;;;;;5098891;28;20055;-85
2022/01/27 03:49:13;;;;;;;37.58;18.25;;;4.40;84.60;;;;;;5114554;27;20032;-85
2022/01/27 03:51:40;;;;;;;38.90;17.67;;;4.40;84.70;;;;;;5098167;27;20104;-85
2022/01/27 03:54:07;;;;;;;33.88;17.40;;;4.40;84.50;;;;;;5096757;28;20048;-86
2022/01/27 03:56:34;;;;;;;36.10;17.40;;;4.40;84.40;;;;;;5077695;28;20498;-85
2022/01/27 03:59:01;;;;;;;35.38;17.05;;;4.40;84.50;;;;;;5102780;28;20048;-86
2022/01/27 04:01:36;;;;;;;34.88;17.42;;;4.40;84.60;;;;;;5102788;28;20495;-85
2022/01/27 04:04:04;;;;;;;38.25;17.05;;;4.40;84.80;;;;;;5100678;27;20149;-86
2022/01/27 04:06:41;;;;;;;31.02;16.92;;;4.30;85.00;;;;;;5101605;28;20512;-86
2022/01/27 04:09:12;;;;;;;33.42;16.90;;;4.30;85.10;;;;;;5102869;28;20051;-86
2022/01/27 04:11:46;;;;;;;35.08;17.88;;;4.30;85.00;;;;;;5102857;28;20059;-86
2022/01/27 04:14:23;;;;;;;35.05;16.42;;;4.30;84.90;;;;;;5101123;28;20127;-86
2022/01/27 04:16:50;;;;;;;35.78;18.55;;;4.40;84.70;;;;;;5096807;28;20049;-86
2022/01/27 04:19:24;;;;;;;35.88;17.80;;;4.40;84.90;;;;;;5101039;27;20051;-85
2022/01/27 04:21:51;;;;;;;32.85;17.05;;;4.40;85.00;;;;;;5105157;28;20056;-85
2022/01/27 04:24:18;;;;;;;43.03;17.42;;;4.40;85.10;;;;;;5112548;28;20105;-85
2022/01/27 04:26:56;;;;;;;32.97;16.20;;;4.40;85.10;;;;;;5102052;28;20045;-85
2022/01/27 04:29:23;;;;;;;33.55;16.08;;;4.40;85.20;;;;;;5113005;28;20215;-85
2022/01/27 04:31:56;;;;;;;36.78;16.60;;;4.40;84.90;;;;;;5106182;27;20799;-85
2022/01/27 04:34:25;;;;;;;36.05;17.25;;;4.40;84.90;;;;;;5105255;28;20048;-85
2022/01/27 04:36:56;;;;;;;35.10;15.90;;;4.50;85.20;;;;;;5112405;28;20052;-86
2022/01/27 04:39:31;;;;;;;35.40;16.75;;;4.50;85.10;;;;;;5094768;28;20041;-85
2022/01/27 04:42:23;;;;;;;32.08;16.30;;;4.50;85.20;;;;;;5102979;28;20070;-85
2022/01/27 04:45:12;;;;;;;30.92;15.90;;;4.50;85.40;;;;;;5102177;28;20052;-85
2022/01/27 04:47:45;;;;;;;36.25;15.18;;;4.50;85.30;;;;;;5102910;28;20895;-85
2022/01/27 04:50:15;;;;;;;36.50;16.23;;;4.50;85.40;;;;;;5105983;28;20101;-85
2022/01/27 04:52:47;;;;;;;37.03;16.40;;;4.60;85.70;;;;;;5105366;28;20048;-85
2022/01/27 04:55:23;;;;;;;37.28;16.00;;;4.50;85.80;;;;;;5098580;28;20102;-86
2022/01/27 04:58:14;;;;;;;32.65;15.25;;;4.60;85.80;;;;;;5099927;28;20429;-85
2022/01/27 05:01:05;;;;;;;36.97;15.35;;;4.50;86.00;;;;;;5098985;28;20064;-85
2022/01/27 05:06:11;;;;;;;37.78;14.90;;;4.60;86.30;;;;;;5096464;28;20854;-85
2022/01/27 05:08:38;;;;;;;28.63;14.60;;;4.60;86.10;;;;;;5103368;28;20122;-85
2022/01/27 05:11:13;;;;;;;31.60;14.65;;;4.70;86.50;;;;;;5102474;28;20135;-85
2022/01/27 05:13:54;;;;;;;;;;;4.70;86.40;;;;;;5109464;28;20079;-86
2022/01/27 05:16:22;;;;;;;32.42;14.05;;;4.70;86.60;;;;;;5102093;28;20705;-86
2022/01/27 05:18:51;;;;;;;34.67;14.75;;;4.70;86.70;;;;;;5100777;28;20055;-86
2022/01/27 05:21:20;;;;;;;31.48;14.40;;;4.70;86.80;;;;;;5100642;27;20977;-85
2022/01/27 05:23:52;;;;;;;35.42;13.98;;;4.70;87.00;;;;;;5103747;28;20079;-85
2022/01/27 05:26:21;;;;;;;35.00;15.15;;;4.80;86.90;;;;;;5097026;28;20423;-85
2022/01/27 05:28:53;;;;;;;36.55;15.05;;;4.80;87.10;;;;;;5105602;28;20143;-85
2022/01/27 05:31:25;;;;;;;32.45;14.20;;;4.80;87.40;;;;;;5103453;28;20048;-86
2022/01/27 05:33:55;;;;;;;33.60;14.18;;;4.80;87.10;;;;;;5098038;27;20063;-85
2022/01/27 05:36:25;;;;;;;32.70;13.80;;;4.90;87.40;;;;;;5097502;28;20814;-86
2022/01/27 05:38:53;;;;;;;36.67;14.02;;;4.90;87.50;;;;;;5101528;28;20100;-85
2022/01/27 05:41:23;;;;;;;34.10;13.60;;;4.90;87.70;;;;;;5104602;28;20068;-85
2022/01/27 05:43:59;;;;;;;31.40;12.93;;;4.90;87.80;;;;;;5106277;28;20845;-85
2022/01/27 05:46:35;;;;;;;29.55;12.82;;;4.90;87.70;;;;;;5107590;28;20062;-86
2022/01/27 05:49:08;;;;;;;30.83;13.05;;;5.00;87.50;;;;;;5098818;28;20052;-86
2022/01/27 05:51:38;;;;;;;31.33;13.65;;;5.00;87.40;;;;;;5108902;28;20047;-86
2022/01/27 05:54:10;;;;;;;28.80;12.40;;;5.00;87.60;;;;;;5102434;27;20611;-86
2022/01/27 05:56:42;;;;;;;32.92;13.18;;;5.10;87.40;;;;;;5106479;28;20080;-86
2022/01/27 05:59:17;;;;;;;32.10;13.68;;;5.10;87.40;;;;;;5106978;28;20060;-86
2022/01/27 06:01:46;;;;;;;28.40;12.32;;;5.10;87.60;;;;;;5100925;28;20542;-86
2022/01/27 06:04:16;;;;;;;37.10;11.95;;;5.20;87.30;;;;;;5099478;28;20822;-86
2022/01/27 06:06:44;;;;;;;28.38;11.50;;;5.10;87.40;;;;;;5113669;28;20049;-86
2022/01/27 06:09:14;;;;;;;30.67;12.02;;;5.20;87.40;;;;;;5112878;28;20048;-86
2022/01/27 06:11:44;;;;;;;32.40;12.27;;;5.20;87.50;;;;;;5106069;28;20034;-86
2022/01/27 06:14:23;;;;;;;;;;;5.20;87.50;;;;;;5101234;28;20052;-85
2022/01/27 06:16:52;;;;;;;29.45;11.73;;;5.20;87.40;;;;;;5109147;28;19931;-86
2022/01/27 06:19:30;;;;;;;38.42;11.32;;;5.30;87.60;;;;;;5109951;28;20090;-85
2022/01/27 06:22:11;;;;;;;36.17;11.27;;;5.30;87.60;;;;;;5107910;27;20037;-86
2022/01/27 06:24:45;;;;;;;25.80;11.18;;;5.30;87.60;;;;;;5106320;28;20136;-86
2022/01/27 06:27:21;;;;;;;28.25;11.90;;;5.30;87.50;;;;;;5102832;28;20128;-86
2022/01/27 06:29:50;;;;;;;32.25;12.10;;;5.40;87.50;;;;;;5109435;28;20055;-86
2022/01/27 06:32:19;;;;;;;32.30;11.82;;;5.40;87.60;;;;;;5105966;28;20124;-86
2022/01/27 06:34:54;;;;;;;30.33;12.43;;;5.40;87.60;;;;;;5101168;28;20048;-85
2022/01/27 06:37:27;;;;;;;34.35;10.95;;;5.40;87.70;;;;;;5102424;27;20054;-85
2022/01/27 06:40:05;;;;;;;29.02;11.48;;;5.40;87.70;;;;;;5095208;27;20053;-86
2022/01/27 06:42:32;;;;;;;35.15;11.98;;;5.40;87.70;;;;;;5101719;28;20802;-86
2022/01/27 06:44:59;;;;;;;36.17;11.30;;;5.50;87.60;;;;;;5098922;27;20060;-86
2022/01/27 06:47:26;;;;;;;33.13;11.02;;;5.50;87.70;;;;;;5093988;28;20044;-86
2022/01/27 06:49:55;;;;;;;29.70;10.90;;;5.50;87.80;;;;;;5094480;28;20048;-85
2022/01/27 06:52:27;;;;;;;28.45;11.18;;;5.50;87.70;;;;;;5091163;28;20041;-85
2022/01/27 06:54:55;;;;;;;34.45;11.27;;;5.50;87.70;;;;;;5093580;28;20049;-86
2022/01/27 06:57:28;;;;;;;31.98;10.82;;;5.50;87.90;;;;;;5092334;28;20059;-85
2022/01/27 07:00:03;;;;;;;30.33;10.70;;;5.50;87.80;;;;;;5104535;28;20048;-86
2022/01/27 07:02:29;;;;;;;31.05;11.57;;;5.50;88.50;;;;;;5095224;28;20040;-86
2022/01/27 07:05:00;;;;;;;33.25;12.35;;;5.50;89.10;;;;;;5102428;28;20040;-86
2022/01/27 07:07:27;;;;;;;38.55;13.57;;;5.50;90.20;;;;;;5104010;28;20137;-86
2022/01/27 07:09:55;;;;;;;36.72;12.40;;;5.40;91.10;;;;;;5104779;28;20060;-86
2022/01/27 07:12:22;;;;;;;37.33;12.55;;;5.40;91.30;;;;;;5097070;28;20111;-86
2022/01/27 07:14:49;;;;;;;36.15;13.35;;;5.40;91.40;;;;;;5103971;27;20072;-87
2022/01/27 07:17:35;;;;;;;38.30;13.52;;;5.30;92.30;;;;;;5102571;28;20086;-87
2022/01/27 07:20:04;;;;;;;35.58;12.70;;;5.30;92.80;;;;;;5111361;28;20044;-87
2022/01/27 07:22:38;;;;;;;38.25;14.00;;;5.30;93.10;;;;;;5098144;27;20351;-88
2022/01/27 07:25:11;;;;;;;39.85;13.32;;;5.30;93.30;;;;;;5103972;28;20052;-87
2022/01/27 07:27:45;;;;;;;;;;;5.30;93.20;;;;;;5100080;28;20545;-86
2022/01/27 07:30:25;;;;;;;39.28;13.20;;;5.30;93.50;;;;;;5097574;27;19974;-86
2022/01/27 07:32:54;;;;;;;43.40;15.25;;;5.20;93.80;;;;;;5094448;28;20045;-87
2022/01/27 07:35:28;;;;;;;35.22;14.20;;;5.20;94.20;;;;;;5096584;28;20131;-87
2022/01/27 07:37:59;;;;;;;45.60;15.07;;;5.20;94.40;;;;;;5103224;28;20066;-87
2022/01/27 07:40:36;;;;;;;45.03;15.10;;;5.20;94.70;;;;;;5095222;28;20060;-86
2022/01/27 07:43:17;;;;;;;37.88;14.65;;;5.20;94.90;;;;;;5101310;28;20836;-86
2022/01/27 07:45:45;;;;;;;46.60;15.82;;;5.20;95.10;;;;;;5095772;28;20286;-86
2022/01/27 07:48:15;;;;;;;40.25;15.15;;;5.20;95.10;;;;;;5101140;28;20045;-86
2022/01/27 07:50:44;;;;;;;42.00;14.43;;;5.20;95.20;;;;;;5103295;28;20106;-86
2022/01/27 07:53:13;;;;;;;37.58;14.18;;;5.20;95.50;;;;;;5099047;27;20053;-86
2022/01/27 07:55:40;;;;;;;42.55;16.52;;;5.20;95.60;;;;;;5110260;28;20045;-86
2022/01/27 07:58:07;;;;;;;45.38;16.52;;;5.20;95.70;;;;;;5094145;28;20057;-86
2022/01/27 08:00:34;;;;;;;38.17;15.40;;;5.20;95.60;;;;;;5109127;28;20443;-86
2022/01/27 08:03:03;;;;;;;46.15;15.25;;;5.20;95.70;;;;;;5095450;28;20052;-86
2022/01/27 08:05:31;;;;;;;42.10;15.98;;;5.20;95.60;;;;;;5105764;28;20057;-86
2022/01/27 08:07:59;;;;;;;44.47;16.45;;;5.20;95.70;;;;;;5103703;28;20053;-86
2022/01/27 08:10:37;;;;;;;48.88;18.80;;;5.20;95.80;;;;;;5095073;28;20056;-87
2022/01/27 08:13:14;;;;;;;54.10;19.25;;;5.30;95.90;;;;;;5100745;28;20083;-87
2022/01/27 08:15:55;;;;;;;44.63;15.98;;;5.20;96.10;;;;;;5106819;28;20131;-86
2022/01/27 08:18:44;;;;;;;60.40;19.75;;;5.30;96.30;;;;;;5090867;28;20066;-86
2022/01/27 08:21:16;;;;;;;50.03;17.08;;;5.30;96.50;;;;;;5105372;28;20053;-86
2022/01/27 08:23:53;;;;;;;54.70;16.75;;;5.30;96.60;;;;;;5097573;28;20064;-87
2022/01/27 08:26:42;;;;;;;43.40;16.67;;;5.30;96.60;;;;;;5103594;28;20052;-87
2022/01/27 08:29:24;;;;;;;53.17;17.90;;;5.30;96.70;;;;;;5100086;28;20063;-87
2022/01/27 08:32:29;;;;;;;55.85;17.42;;;5.40;96.70;;;;;;5099276;27;20443;-86
2022/01/27 08:35:01;;;;;;;54.67;17.67;;;5.40;96.70;;;;;;5097517;28;20045;-86
2022/01/27 08:37:34;;;;;;;47.33;16.25;;;5.40;96.70;;;;;;5097306;28;20868;-86
2022/01/27 08:40:17;;;;;;;39.55;15.27;;;5.50;96.70;;;;;;5098237;28;20143;-87
2022/01/27 08:43:04;;;;;;;50.38;16.58;;;5.50;96.80;;;;;;5093285;28;20053;-87
2022/01/27 08:45:44;;;;;;;;;;;;;;;;;;;;;
2022/01/27 08:48:25;;;;;;;62.08;16.70;;;5.60;96.90;;;;;;5101413;27;20410;-86
2022/01/27 08:51:09;;;;;;;52.75;16.52;;;5.60;96.90;;;;;;5098920;28;20053;-86
2022/01/27 08:53:56;;;;;;;39.50;14.38;;;5.60;96.90;;;;;;5094255;27;20052;-86
2022/01/27 08:56:38;;;;;;;45.10;14.45;;;5.60;96.90;;;;;;5102904;28;20076;-86
2022/01/27 08:59:19;;;;;;;39.00;12.77;;;5.70;97.00;;;;;;5101879;28;20131;-86
2022/01/27 09:01:54;;;;;;;48.20;14.75;;;5.70;97.10;;;;;;5107360;28;20858;-87
2022/01/27 09:04:22;;;;;;;42.38;13.95;;;5.70;97.20;;;;;;5095612;27;20079;-87
2022/01/27 09:06:54;;;;;;;49.20;15.57;;;5.70;97.20;;;;;;5094807;28;20044;-87
2022/01/27 09:12:15;;;;;;;38.33;13.13;;;5.80;97.20;;;;;;5103250;28;20558;-87
2022/01/27 09:14:56;;;;;;;37.78;13.63;;;5.80;97.30;;;;;;5098197;27;20534;-87
2022/01/27 09:17:26;;;;;;;32.35;13.65;;;5.80;97.30;;;;;;5109118;27;20532;-87
2022/01/27 09:20:26;;;;;;;44.15;14.20;;;5.80;97.40;;;;;;5096664;28;20626;-87
2022/01/27 09:23:00;;;;;;;43.13;15.32;;;5.80;97.30;;;;;;5105442;28;20423;-87
2022/01/27 09:25:47;;;;;;;42.63;14.50;;;5.90;97.30;;;;;;5099131;27;20057;-87
2022/01/27 09:28:15;;;;;;;43.20;14.70;;;5.90;97.30;;;;;;5095631;28;20051;-87
2022/01/27 09:30:43;;;;;;;48.85;15.32;;;5.90;97.30;;;;;;5093525;28;20044;-87
2022/01/27 09:33:13;;;;;;;38.25;15.35;;;5.90;97.30;;;;;;5094247;28;20851;-87
2022/01/27 09:35:42;;;;;;;49.28;17.00;;;6.00;97.40;;;;;;5100186;27;20723;-86
2022/01/27 09:38:09;;;;;;;52.90;16.35;;;6.00;97.40;;;;;;5094050;28;20061;-87
2022/01/27 09:40:46;;;;;;;43.50;15.60;;;6.00;97.30;;;;;;5103024;28;20044;-87
2022/01/27 09:43:16;;;;;;;57.83;17.23;;;6.00;97.40;;;;;;5099143;27;20056;-87
2022/01/27 09:45:43;;;;;;;46.42;18.33;;;6.00;97.40;;;;;;5108938;28;20052;-87
2022/01/27 09:48:13;;;;;;;56.92;19.33;;;6.10;97.40;;;;;;5100140;27;20814;-87
2022/01/27 09:53:13;;;;;;;49.55;18.77;;;6.20;97.60;;;;;;5095799;28;20555;-87
2022/01/27 09:55:40;;;;;;;53.13;17.80;;;6.20;97.60;;;;;;5105164;28;20112;-87
2022/01/27 09:58:09;;;;;;;51.35;18.10;;;6.20;97.70;;;;;;5105159;27;20064;-87
2022/01/27 10:00:38;;;;;;;56.55;18.83;;;6.30;97.80;;;;;;5113624;28;20046;-87
2022/01/27 10:03:30;;;;;;;50.47;18.00;;;6.40;97.80;;;;;;5112986;28;20040;-86
2022/01/27 10:06:14;;;;;;;52.13;19.23;;;6.40;97.80;;;;;;5117397;28;20047;-87
2022/01/27 10:08:48;;;;;;;;;;;6.50;97.90;;;;;;5109327;28;20040;-87
2022/01/27 10:11:20;;;;;;;;;;;6.50;97.80;;;;;;5122099;28;20741;-87
2022/01/27 10:13:53;;;;;;;35.08;15.30;;;6.60;97.80;;;;;;5130451;27;19924;-87
2022/01/27 10:16:36;;;;;;;51.63;16.98;;;6.60;97.80;;;;;;5106825;27;20407;-87
2022/01/27 10:19:19;;;;;;;50.08;17.63;;;6.60;97.70;;;;;;5100409;28;20055;-87
2022/01/27 10:21:49;;;;;;;52.60;18.35;;;6.60;97.60;;;;;;5094804;28;20480;-87
2022/01/27 10:24:26;;;;;;;43.50;18.05;;;6.60;97.60;;;;;;5095918;28;20053;-87
2022/01/27 10:27:29;;;;;;;53.78;18.73;;;6.70;97.60;;;;;;5105165;28;20514;-87
2022/01/27 10:33:03;;;;;;;48.92;17.27;;;6.80;97.40;;;;;;5096624;28;20081;-87
2022/01/27 10:35:32;;;;;;;52.13;16.98;;;6.80;97.40;;;;;;5098581;28;20052;-86
2022/01/27 10:38:09;;;;;;;46.83;17.67;;;6.80;97.30;;;;;;5106845;28;20127;-86
2022/01/27 10:40:47;;;;;;;47.95;16.85;;;6.80;97.30;;;;;;5093648;28;20072;-87
2022/01/27 10:43:25;;;;;;;46.92;17.73;;;6.80;97.30;;;;;;5099764;28;20470;-87
2022/01/27 10:46:09;;;;;;;44.67;15.18;;;6.80;97.40;;;;;;5096624;28;20961;-87
2022/01/27 10:49:10;;;;;;;55.80;15.90;;;6.80;97.40;;;;;;5096851;28;20637;-87
2022/01/27 10:51:51;;;;;;;45.15;14.50;;;6.90;97.40;;;;;;5104449;28;20044;-87
2022/01/27 10:54:41;;;;;;;41.45;13.95;;;6.90;97.30;;;;;;5105817;28;20059;-87
2022/01/27 10:57:22;;;;;;;38.47;13.75;;;6.90;97.40;;;;;;5102841;28;20139;-86
2022/01/27 11:00:18;;;;;;;42.80;15.10;;;6.90;97.30;;;;;;5103908;28;20068;-87
2022/01/27 11:02:52;;;;;;;57.90;15.25;;;6.90;97.40;;;;;;5092866;28;20060;-87
2022/01/27 11:05:37;;;;;;;51.95;15.50;;;7.00;97.30;;;;;;5095914;28;20048;-86
2022/01/27 11:08:04;;;;;;;34.20;13.45;;;7.00;97.40;;;;;;5102471;28;20136;-87
2022/01/27 11:10:35;;;;;;;43.00;13.25;;;7.00;97.40;;;;;;5098250;28;20040;-87
2022/01/27 11:13:21;;;;;;;;;;;;;;;;;;;;;
2022/01/27 11:15:53;;;;;;;43.42;13.45;;;7.10;97.30;;;;;;5092233;28;20056;-87
2022/01/27 11:18:25;;;;;;;42.03;14.52;;;7.10;97.40;;;;;;5098508;28;20048;-87
2022/01/27 11:21:12;;;;;;;54.50;14.38;;;7.10;97.30;;;;;;5105333;28;20143;-87
2022/01/27 11:26:53;;;;;;;45.78;14.05;;;7.10;97.30;;;;;;5068952;28;20496;-87
2022/01/27 11:29:26;;;;;;;38.60;13.20;;;7.20;97.30;;;;;;5096109;28;20143;-87
2022/01/27 11:32:14;;;;;;;40.85;13.20;;;7.20;97.30;;;;;;5096352;28;20532;-86
2022/01/27 11:34:45;;;;;;;46.22;13.98;;;7.20;97.20;;;;;;5103897;28;20831;-86
2022/01/27 11:37:16;;;;;;;45.40;13.05;;;7.20;97.20;;;;;;5108184;28;20068;-86
2022/01/27 11:39:52;;;;;;;37.20;13.20;;;7.20;97.20;;;;;;5095827;27;20052;-87
2022/01/27 11:42:21;;;;;;;47.95;13.27;;;7.20;97.20;;;;;;5099879;27;20072;-87
2022/01/27 11:44:48;;;;;;;36.33;11.68;;;7.20;97.20;;;;;;5092633;28;20065;-86
2022/01/27 11:47:49;;;;;;;37.22;12.38;;;7.20;97.10;;;;;;5100017;27;20050;-86
2022/01/27 11:50:34;;;;;;;41.75;12.30;;;7.20;97.20;;;;;;5104610;28;20057;-86
2022/01/27 11:53:26;;;;;;;45.92;12.35;;;7.20;97.20;;;;;;5106184;28;20049;-86
2022/01/27 11:55:57;;;;;;;43.22;11.18;;;7.20;97.20;;;;;;5101290;28;20087;-87
2022/01/27 11:58:28;;;;;;;47.03;12.15;;;7.20;97.20;;;;;;5100822;28;20052;-87
2022/01/27 12:01:17;;;;;;;43.05;11.55;;;7.30;97.30;;;;;;5095710;28;20132;-86
2022/01/27 12:04:15;;;;;;;32.03;10.52;;;7.20;97.30;;;;;;5110134;28;20057;-87
2022/01/27 12:06:56;;;;;;;39.42;10.13;;;7.30;97.30;;;;;;5100272;28;20063;-87
2022/01/27 12:09:32;;;;;;;37.80;9.63;;;7.30;97.40;;;;;;5103092;28;20067;-86
2022/01/27 12:12:27;;;;;;;32.60;10.32;;;7.30;97.30;;;;;;5107234;28;20052;-87
2022/01/27 12:15:00;;;;;;;39.65;10.27;;;7.30;97.20;;;;;;5095028;27;20139;-86
2022/01/27 12:17:36;;;;;;;37.27;9.77;;;7.40;97.20;;;;;;5102227;28;20056;-87
2022/01/27 12:20:18;;;;;;;28.58;9.15;;;7.40;97.20;;;;;;5101704;28;20079;-87
2022/01/27 12:23:00;;;;;;;23.58;7.75;;;7.40;97.20;;;;;;5098668;28;20581;-86
2022/01/27 12:25:51;;;;;;;25.35;7.63;;;7.40;97.30;;;;;;5098092;27;20159;-87
2022/01/27 12:28:37;;;;;;;20.85;7.22;;;7.50;97.00;;;;;;5093895;28;20076;-86
2022/01/27 12:31:14;;;;;;;15.70;7.00;;;7.50;97.00;;;;;;5093641;28;20114;-87
2022/01/27 12:33:55;;;;;;;22.73;7.07;;;7.60;97.00;;;;;;5100142;28;20498;-86
2022/01/27 12:36:25;;;;;;;22.92;6.97;;;7.70;96.80;;;;;;5093159;28;20131;-86
2022/01/27 12:38:58;;;;;;;21.83;7.20;;;7.80;96.70;;;;;;5098329;27;20052;-87
2022/01/27 12:41:52;;;;;;;27.27;6.95;;;7.90;96.50;;;;;;5098881;27;20147;-87
2022/01/27 12:44:23;;;;;;;24.52;6.53;;;7.90;96.30;;;;;;5101631;28;20056;-87
2022/01/27 12:47:02;;;;;;;24.08;6.53;;;8.00;96.30;;;;;;5096704;28;20083;-87
2022/01/27 12:49:47;;;;;;;22.48;5.68;;;8.00;96.30;;;;;;5100321;27;20083;-87
2022/01/27 12:52:19;;;;;;;22.40;6.07;;;8.00;96.20;;;;;;5107785;28;20527;-86
2022/01/27 12:54:51;;;;;;;18.17;5.85;;;8.10;95.90;;;;;;5094984;27;20052;-86
2022/01/27 12:57:40;;;;;;;17.55;5.50;;;8.10;95.80;;;;;;5098084;27;20511;-87
2022/01/27 13:00:21;;;;;;;21.23;5.90;;;8.10;95.40;;;;;;5099293;28;20040;-85
2022/01/27 13:03:11;;;;;;;22.95;5.47;;;8.10;95.40;;;;;;5099024;28;20056;-87
2022/01/27 13:06:06;;;;;;;16.10;5.20;;;8.20;95.30;;;;;;5094609;28;20118;-87
2022/01/27 13:08:42;;;;;;;24.08;5.40;;;8.30;95.20;;;;;;5092944;28;20087;-87
2022/01/27 13:11:15;;;;;;;16.85;4.75;;;8.30;94.70;;;;;;5104323;28;20050;-87
2022/01/27 13:14:01;;;;;;;17.00;5.35;;;8.40;94.70;;;;;;5100069;28;20074;-85
2022/01/27 13:16:46;;;;;;;19.52;4.85;;;8.40;94.60;;;;;;5094174;28;20132;-85
2022/01/27 13:19:31;;;;;;;21.80;4.75;;;8.50;94.60;;;;;;5103588;28;20075;-87
2022/01/27 13:22:03;;;;;;;13.20;4.43;;;8.60;94.30;;;;;;5101025;28;20499;-86
2022/01/27 13:24:48;;;;;;;12.02;4.25;;;8.60;93.70;;;;;;5101650;28;20055;-86
2022/01/27 13:27:15;;;;;;;14.52;4.50;;;8.60;93.00;;;;;;5094334;28;20037;-85
2022/01/27 13:29:46;;;;;;;14.20;3.95;;;8.60;93.00;;;;;;5103987;28;20125;-85
2022/01/27 13:32:19;;;;;;;18.02;4.72;;;8.60;92.90;;;;;;5102942;27;20561;-85
2022/01/27 13:34:51;;;;;;;17.42;4.50;;;8.60;92.70;;;;;;5092517;28;20051;-85
2022/01/27 13:37:38;;;;;;;17.33;3.90;;;8.70;92.70;;;;;;5094726;28;20496;-85
2022/01/27 13:43:00;;;;;;;15.50;4.15;;;8.70;92.20;;;;;;5099266;28;20094;-85
2022/01/27 13:45:37;;;;;;;17.13;3.72;;;8.80;91.50;;;;;;5105998;28;20055;-85
2022/01/27 13:48:23;;;;;;;21.50;3.83;;;8.80;91.90;;;;;;5108043;27;20084;-85
2022/01/27 13:51:19;;;;;;;19.45;3.97;;;8.80;91.40;;;;;;5096687;28;20571;-85
2022/01/27 13:54:15;;;;;;;16.70;3.90;;;8.70;91.20;;;;;;5087561;28;20515;-85
2022/01/27 13:56:53;;;;;;;11.48;3.58;;;8.70;91.70;;;;;;5104118;28;20052;-85
2022/01/27 14:00:09;;;;;;;12.98;3.30;;;8.60;91.70;;;;;;5100653;28;20056;-85
2022/01/27 14:02:45;;;;;;;18.60;3.67;;;8.60;90.60;;;;;;5093690;27;20056;-85
2022/01/27 14:05:22;;;;;;;21.65;3.72;;;8.50;91.10;;;;;;5092176;28;20089;-86